Time;durP1;ratioP1;P1;durP2;ratioP2;P2;SDS_P1;SDS_P2;PMS_P1;PMS_P2;Temp;Humidity;BMP_temperature;BMP_pressure;BME280_temperature;BME280_humidity;BME280_pressure;Samples;Min_cycle;Max_cycle;Signal;HPM_P1;HPM_P2
2023/08/31 00:01:20;;;;;;;57.67;53.15;;;;;;;22.70;100.00;100351.53;5107307;28;20152;-77
2023/08/31 00:03:47;;;;;;;57.42;52.92;;;;;;;22.76;100.00;100336.03;5095754;28;20048;-77
2023/08/31 00:06:14;;;;;;;54.78;50.28;;;;;;;22.57;100.00;100339.56;5099214;28;20044;-77
2023/08/31 00:08:40;;;;;;;54.90;50.40;;;;;;;22.64;100.00;100329.16;5095717;28;20059;-77
2023/08/31 00:11:08;;;;;;;58.95;54.05;;;;;;;22.70;100.00;100334.50;5097017;28;20052;-77
2023/08/31 00:13:34;;;;;;;50.25;46.03;;;;;;;22.30;100.00;100344.84;5100727;28;20519;-77
2023/08/31 00:16:01;;;;;;;60.40;55.63;;;;;;;22.53;100.00;100353.97;5105469;28;20446;-77
2023/08/31 00:18:30;;;;;;;65.97;60.88;;;;;;;22.59;100.00;100350.88;5097353;28;20101;-77
2023/08/31 00:20:57;;;;;;;56.72;51.90;;;;;;;22.45;100.00;100354.63;5103997;28;20048;-77
2023/08/31 00:23:24;;;;;;;55.50;51.17;;;;;;;22.41;100.00;100354.41;5093745;28;20528;-77
2023/08/31 00:25:52;;;;;;;54.22;49.38;;;;;;;22.46;100.00;100354.34;5107544;28;20113;-77
2023/08/31 00:28:19;;;;;;;54.45;49.88;;;;;;;22.54;100.00;100360.97;5103198;28;20101;-77
2023/08/31 00:30:46;;;;;;;56.40;51.92;;;;;;;22.35;100.00;100367.22;5095869;28;20074;-76
2023/08/31 00:33:13;;;;;;;47.33;43.45;;;;;;;22.26;100.00;100368.97;5079785;28;20040;-77
2023/08/31 00:35:43;;;;;;;57.53;53.03;;;;;;;22.53;100.00;100381.84;5106012;28;20048;-77
2023/08/31 00:38:10;;;;;;;52.42;48.13;;;;;;;22.22;100.00;100383.38;5096570;28;20044;-77
2023/08/31 00:40:40;;;;;;;52.45;48.05;;;;;;;22.03;100.00;100394.13;5103235;28;20440;-77
2023/08/31 00:43:08;;;;;;;41.05;37.45;;;;;;;22.16;100.00;100386.16;5097860;28;20176;-77
2023/08/31 00:45:35;;;;;;;45.28;41.47;;;;;;;22.36;100.00;100376.13;5096668;28;20106;-77
2023/08/31 00:48:02;;;;;;;51.35;47.35;;;;;;;22.54;100.00;100363.69;5106065;28;20044;-77
2023/08/31 00:50:29;;;;;;;50.22;46.22;;;;;;;22.53;100.00;100371.00;5095597;28;20059;-77
2023/08/31 00:52:58;;;;;;;54.63;50.40;;;;;;;22.67;100.00;100359.44;5096125;28;20063;-77
2023/08/31 00:55:26;;;;;;;58.72;54.13;;;;;;;22.68;100.00;100375.38;5100612;28;20526;-77
2023/08/31 00:57:53;;;;;;;55.05;50.83;;;;;;;22.37;100.00;100375.84;5104356;28;20534;-77
2023/08/31 01:00:21;;;;;;;43.22;39.42;;;;;;;22.56;100.00;100367.72;5102112;28;20052;-77
2023/08/31 01:03:00;;;;;;;45.28;41.47;;;;;;;22.59;100.00;100371.72;5096231;28;20551;-77
2023/08/31 01:05:39;;;;;;;48.63;44.72;;;;;;;22.45;100.00;100370.88;5098186;28;20440;-77
2023/08/31 01:08:20;;;;;;;40.50;36.90;;;;;;;22.38;100.00;100376.66;5097748;28;20058;-77
2023/08/31 01:11:03;;;;;;;38.90;35.63;;;;;;;22.26;100.00;100379.78;5089511;28;20055;-77
2023/08/31 01:13:32;;;;;;;39.45;35.95;;;;;;;22.38;100.00;100385.56;5099244;28;20105;-77
2023/08/31 01:16:06;;;;;;;48.97;45.08;;;;;;;22.45;100.00;100377.09;5096309;28;20047;-77
2023/08/31 01:18:35;;;;;;;49.85;45.75;;;;;;;22.56;100.00;100392.06;5100048;28;20066;-77
2023/08/31 01:21:10;;;;;;;52.22;48.03;;;;;;;22.68;100.00;100386.22;5100309;28;20044;-77
2023/08/31 01:23:53;;;;;;;58.17;53.67;;;;;;;22.66;100.00;100393.00;5088032;28;20540;-77
2023/08/31 01:26:20;;;;;;;49.10;45.10;;;;;;;22.52;100.00;100379.44;5088180;28;20051;-77
2023/08/31 01:28:48;;;;;;;47.45;43.60;;;;;;;22.54;100.00;100383.47;5104649;28;20048;-77
2023/08/31 01:31:15;;;;;;;46.42;42.53;;;;;;;22.57;100.00;100380.16;5095316;28;20044;-77
2023/08/31 01:34:34;;;;;;;60.65;55.95;;;;;;;22.45;100.00;100384.38;5097220;28;20079;-77
2023/08/31 01:37:21;;;;;;;53.30;48.90;;;;;;;22.38;100.00;100388.25;5102818;28;20108;-77
2023/08/31 01:39:57;;;;;;;68.25;63.15;;;;;;;22.17;100.00;100387.75;5101037;28;20055;-77
2023/08/31 01:42:27;;;;;;;59.03;54.42;;;;;;;22.32;100.00;100394.03;5096892;28;20074;-76
2023/08/31 01:44:57;;;;;;;54.78;50.38;;;;;;;22.40;100.00;100393.41;5096864;28;20044;-77
2023/08/31 01:47:25;;;;;;;51.08;46.88;;;;;;;22.41;100.00;100386.88;5093460;28;20108;-77
2023/08/31 01:49:52;;;;;;;49.55;45.45;;;;;;;22.26;100.00;100381.69;5096916;28;20048;-77
2023/08/31 01:52:19;;;;;;;50.15;46.05;;;;;;;22.45;100.00;100382.50;5086379;28;20056;-77
2023/08/31 01:54:46;;;;;;;58.80;54.17;;;;;;;21.83;100.00;100387.09;5102493;28;20044;-76
2023/08/31 01:57:15;;;;;;;52.08;47.78;;;;;;;21.75;100.00;100391.22;5101006;28;20428;-76
2023/08/31 01:59:41;;;;;;;56.30;52.00;;;;;;;22.21;100.00;100400.69;5100284;28;20047;-77
2023/08/31 02:02:08;;;;;;;54.33;50.05;;;;;;;22.20;100.00;100404.50;5096474;28;20124;-77
2023/08/31 02:04:35;;;;;;;63.03;58.13;;;;;;;22.49;100.00;100407.06;5100220;28;20044;-77
2023/08/31 02:07:03;;;;;;;61.15;56.45;;;;;;;22.51;100.00;100399.44;5101276;28;20059;-77
2023/08/31 02:09:30;;;;;;;56.75;52.25;;;;;;;22.48;100.00;100394.63;5101040;28;20044;-77
2023/08/31 02:11:56;;;;;;;63.30;58.60;;;;;;;22.44;100.00;100399.03;5097618;28;20043;-77
2023/08/31 02:14:25;;;;;;;58.80;54.58;;;;;;;22.58;100.00;100389.88;5099611;28;20058;-76
2023/08/31 02:16:51;;;;;;;65.60;60.72;;;;;;;22.69;100.00;100382.38;5098301;28;20960;-75
2023/08/31 02:19:18;;;;;;;64.88;60.35;;;;;;;22.23;100.00;100383.06;5095600;28;20109;-75
2023/08/31 02:21:45;;;;;;;78.65;73.45;;;;;;;22.26;100.00;100385.19;5097084;28;20437;-75
2023/08/31 02:24:11;;;;;;;49.95;46.05;;;;;;;22.32;100.00;100381.31;5103355;28;20127;-75
2023/08/31 02:26:38;;;;;;;54.03;49.92;;;;;;;22.49;100.00;100382.72;5095622;28;20126;-76
2023/08/31 02:29:05;;;;;;;69.05;64.25;;;;;;;22.44;100.00;100385.50;5099557;28;20086;-76
2023/08/31 02:31:33;;;;;;;56.63;52.40;;;;;;;22.30;100.00;100385.41;5101722;28;20489;-76
2023/08/31 02:34:03;;;;;;;49.53;45.80;;;;;;;22.22;100.00;100377.97;5100435;28;20097;-76
2023/08/31 02:36:29;;;;;;;50.78;46.95;;;;;;;21.58;100.00;100385.50;5094143;28;20044;-76
2023/08/31 02:38:57;;;;;;;75.80;70.65;;;;;;;21.54;100.00;100392.53;5097441;28;20048;-76
2023/08/31 02:41:24;;;;;;;70.72;65.72;;;;;;;21.96;100.00;100389.88;5106533;28;20440;-76
2023/08/31 02:43:52;;;;;;;64.35;59.20;;;;;;;22.14;100.00;100392.91;5095492;28;20043;-75
2023/08/31 02:46:19;;;;;;;58.95;54.53;;;;;;;22.36;100.00;100386.94;5096187;28;20109;-76
2023/08/31 02:48:47;;;;;;;57.28;52.88;;;;;;;22.45;100.00;100397.91;5103498;28;20436;-76
2023/08/31 02:51:14;;;;;;;54.08;49.78;;;;;;;22.37;100.00;100402.09;5103779;28;20469;-75
2023/08/31 02:53:41;;;;;;;58.00;53.55;;;;;;;22.17;100.00;100405.88;5096046;28;20052;-76
2023/08/31 02:56:08;;;;;;;52.85;48.50;;;;;;;21.86;100.00;100400.03;5099643;28;20044;-75
2023/08/31 02:58:35;;;;;;;76.65;71.25;;;;;;;22.15;100.00;100398.03;5096791;28;20532;-75
2023/08/31 03:01:11;;;;;;;75.25;69.95;;;;;;;21.87;100.00;100391.63;5095555;28;20051;-76
2023/08/31 03:03:38;;;;;;;100.22;93.80;;;;;;;22.02;100.00;100396.03;5096771;28;20531;-76
2023/08/31 03:06:07;;;;;;;84.88;79.18;;;;;;;22.02;100.00;100401.44;5095765;28;20078;-76
2023/08/31 03:08:34;;;;;;;63.05;58.45;;;;;;;22.26;100.00;100397.91;5097804;28;20048;-75
2023/08/31 03:11:01;;;;;;;66.15;61.35;;;;;;;22.27;100.00;100405.75;5102501;28;20039;-75
2023/08/31 03:13:27;;;;;;;55.75;51.40;;;;;;;22.25;100.00;100409.84;5097759;28;20086;-75
2023/08/31 03:15:56;;;;;;;49.72;45.92;;;;;;;22.17;100.00;100419.41;5093115;28;20044;-75
2023/08/31 03:18:23;;;;;;;64.53;60.03;;;;;;;22.12;100.00;100412.13;5099283;28;20097;-75
2023/08/31 03:20:50;;;;;;;57.20;53.00;;;;;;;21.62;100.00;100400.81;5095911;28;20052;-75
2023/08/31 03:23:18;;;;;;;58.75;54.33;;;;;;;21.37;100.00;100403.81;5101221;28;20047;-76
2023/08/31 03:25:45;;;;;;;66.53;61.80;;;;;;;21.65;100.00;100402.16;5095074;28;20055;-77
2023/08/31 03:28:12;;;;;;;50.67;46.88;;;;;;;21.65;100.00;100405.66;5089801;28;20048;-75
2023/08/31 03:30:39;;;;;;;60.85;56.20;;;;;;;21.06;100.00;100414.88;5091828;28;20519;-76
2023/08/31 03:33:06;;;;;;;50.25;46.45;;;;;;;21.20;100.00;100407.69;5092917;28;20044;-76
2023/08/31 03:35:33;;;;;;;53.17;49.22;;;;;;;21.25;100.00;100417.66;5095107;28;20040;-76
2023/08/31 03:38:00;;;;;;;64.13;59.58;;;;;;;21.09;100.00;100410.78;5099214;28;20058;-77
2023/08/31 03:40:28;;;;;;;49.85;46.15;;;;;;;21.40;100.00;100422.16;5100574;28;20046;-77
2023/08/31 03:43:17;;;;;;;53.53;49.72;;;;;;;-143.39;100.00;64013.03;5095076;28;20097;-77
2023/08/31 03:46:04;;;;;;;48.00;44.58;;;;;;;-143.39;100.00;64013.03;5097658;28;20486;-76
2023/08/31 03:48:32;;;;;;;38.85;35.90;;;;;;;-143.39;100.00;64013.03;5103320;28;20042;-77
2023/08/31 03:50:59;;;;;;;42.83;39.63;;;;;;;-143.39;100.00;64013.03;5100459;28;20051;-76
2023/08/31 03:53:25;;;;;;;48.53;44.53;;;;;;;22.06;100.00;100442.22;5096200;28;20047;-75
2023/08/31 03:55:55;;;;;;;54.65;50.80;;;;;;;-143.39;100.00;64013.03;5095523;28;20048;-76
2023/08/31 03:58:22;;;;;;;47.72;43.20;;;;;;;-143.39;100.00;64013.03;5098752;28;20060;-76
2023/08/31 04:00:50;;;;;;;58.30;54.30;;;;;;;22.04;100.00;100442.53;5094221;28;20109;-76
2023/08/31 04:03:17;;;;;;;51.80;47.70;;;;;;;21.98;100.00;100440.97;5094576;28;20048;-76
2023/08/31 04:05:44;;;;;;;51.90;48.10;;;;;;;22.15;100.00;100444.00;5101071;28;20040;-76
2023/08/31 04:08:11;;;;;;;41.70;38.40;;;;;;;22.17;100.00;100446.44;5100050;28;20051;-76
2023/08/31 04:10:38;;;;;;;45.25;41.75;;;;;;;22.15;100.00;100444.00;5097486;28;20056;-76
2023/08/31 04:13:06;;;;;;;44.15;40.55;;;;;;;22.24;100.00;100452.31;5095370;28;20071;-76
2023/08/31 04:15:34;;;;;;;41.25;38.03;;;;;;;22.12;100.00;100458.13;5086213;28;20425;-76
2023/08/31 04:18:03;;;;;;;45.28;41.97;;;;;;;22.13;100.00;100470.53;5097508;28;20048;-76
2023/08/31 04:20:30;;;;;;;37.60;34.70;;;;;;;22.35;100.00;100459.19;5095660;28;20053;-76
2023/08/31 04:22:58;;;;;;;36.45;33.65;;;;;;;22.54;100.00;100467.34;5094550;28;20048;-76
2023/08/31 04:25:25;;;;;;;34.67;31.88;;;;;;;22.18;100.00;100465.09;5096260;28;20540;-76
2023/08/31 04:27:51;;;;;;;35.35;32.55;;;;;;;22.37;100.00;100465.13;5094681;28;20781;-76
2023/08/31 04:30:20;;;;;;;36.17;33.28;;;;;;;22.49;100.00;100461.19;5101653;28;20051;-75
2023/08/31 04:32:48;;;;;;;38.05;35.05;;;;;;;22.52;100.00;100466.81;5091009;28;20082;-76
2023/08/31 04:35:15;;;;;;;40.35;37.25;;;;;;;21.89;100.00;100462.44;5090036;28;20051;-76
2023/08/31 04:37:42;;;;;;;36.55;33.75;;;;;;;22.10;100.00;100470.31;5098838;28;20050;-77
2023/08/31 04:40:12;;;;;;;34.50;31.70;;;;;;;22.28;100.00;100483.09;5097310;28;20097;-78
2023/08/31 04:42:40;;;;;;;34.75;32.05;;;;;;;21.97;100.00;100488.03;5095239;28;20054;-77
2023/08/31 04:45:08;;;;;;;32.75;30.05;;;;;;;22.27;100.00;100489.63;5096875;28;20047;-76
2023/08/31 04:47:36;;;;;;;31.52;28.83;;;;;;;22.65;100.00;100495.06;5103020;28;20048;-76
2023/08/31 04:50:06;;;;;;;37.45;34.35;;;;;;;22.51;100.00;100499.56;5102855;28;20571;-77
2023/08/31 04:52:33;;;;;;;35.53;32.40;;;;;;;21.58;100.00;100493.56;5094803;28;20508;-77
2023/08/31 04:55:03;;;;;;;34.15;31.25;;;;;;;21.83;100.00;100493.31;5095883;28;20486;-77
2023/08/31 04:57:31;;;;;;;32.08;29.38;;;;;;;22.15;100.00;100497.31;5097517;28;20040;-77
2023/08/31 04:59:58;;;;;;;34.55;31.90;;;;;;;-143.39;100.00;64013.03;5099561;28;20516;-77
2023/08/31 05:02:32;;;;;;;32.30;29.70;;;;;;;22.15;100.00;100497.31;5098495;28;20055;-78
2023/08/31 05:05:02;;;;;;;32.10;29.60;;;;;;;-143.39;100.00;64013.03;5092102;28;20039;-77
2023/08/31 05:07:29;;;;;;;31.73;29.10;;;;;;;-143.39;100.00;64013.03;5098068;28;20048;-77
2023/08/31 05:09:56;;;;;;;33.60;30.70;;;;;;;-143.39;100.00;64013.03;5102177;28;20428;-77
2023/08/31 05:12:23;;;;;;;37.95;34.85;;;;;;;-143.39;100.00;64013.03;5098110;28;20044;-77
2023/08/31 05:14:50;;;;;;;39.35;36.25;;;;;;;-143.39;100.00;64013.03;5100569;28;20056;-77
2023/08/31 05:17:17;;;;;;;53.05;48.95;;;;;;;-143.39;100.00;64013.03;5102575;28;20067;-77
2023/08/31 05:19:43;;;;;;;44.80;40.45;;;;;;;22.42;100.00;100510.22;5103643;28;20420;-77
2023/08/31 05:22:12;;;;;;;41.30;38.10;;;;;;;22.51;100.00;100515.81;5093903;28;20056;-77
2023/08/31 05:24:39;;;;;;;39.28;35.92;;;;;;;22.06;100.00;100523.34;5093112;28;20135;-76
2023/08/31 05:27:06;;;;;;;40.70;37.42;;;;;;;21.93;100.00;100524.84;5099715;28;20425;-77
2023/08/31 05:29:32;;;;;;;38.03;34.97;;;;;;;22.58;100.00;100535.22;5100768;28;20059;-77
2023/08/31 05:31:59;;;;;;;40.63;37.63;;;;;;;22.27;100.00;100546.41;5107768;28;20047;-77
2023/08/31 05:34:26;;;;;;;44.30;40.70;;;;;;;22.35;100.00;100543.06;5097456;28;20066;-77
2023/08/31 05:36:53;;;;;;;40.40;37.10;;;;;;;22.41;100.00;100544.59;5099301;28;20052;-77
2023/08/31 05:39:22;;;;;;;41.88;38.38;;;;;;;22.14;100.00;100550.56;5105147;28;20051;-77
2023/08/31 05:41:48;;;;;;;37.95;34.75;;;;;;;22.85;100.00;100550.84;5100880;28;20134;-77
2023/08/31 05:44:15;;;;;;;47.13;43.47;;;;;;;22.12;100.00;100546.56;5100582;28;20043;-77
2023/08/31 05:46:42;;;;;;;42.20;38.58;;;;;;;22.38;100.00;100557.91;5104135;28;20531;-77
2023/08/31 05:49:09;;;;;;;40.38;36.95;;;;;;;22.40;100.00;100556.53;5100834;28;20047;-77
2023/08/31 05:51:36;;;;;;;44.42;40.83;;;;;;;22.77;100.00;100552.28;5104775;28;20048;-77
2023/08/31 05:54:03;;;;;;;45.95;42.05;;;;;;;22.53;100.00;100556.94;5104067;28;20035;-77
2023/08/31 05:56:31;;;;;;;48.65;44.60;;;;;;;22.18;100.00;100554.34;5099588;28;20036;-77
2023/08/31 05:58:58;;;;;;;43.75;40.22;;;;;;;22.37;100.00;100553.59;5105531;28;20048;-77
2023/08/31 06:01:25;;;;;;;44.45;40.72;;;;;;;22.50;100.00;100561.00;5099309;28;20043;-77
2023/08/31 06:03:52;;;;;;;45.83;41.30;;;;;;;22.47;100.00;100567.00;5104146;28;20055;-77
2023/08/31 06:06:19;;;;;;;43.80;39.92;;;;;;;22.44;100.00;100574.91;5100754;28;20043;-77
2023/08/31 06:08:46;;;;;;;45.85;41.80;;;;;;;22.53;100.00;100579.38;5100412;28;20524;-77
2023/08/31 06:11:13;;;;;;;46.95;42.60;;;;;;;22.13;100.00;100573.31;5100938;28;20047;-77
2023/08/31 06:13:42;;;;;;;44.70;38.88;;;;;;;22.48;100.00;100568.63;5101164;28;20052;-77
2023/08/31 06:16:09;;;;;;;48.80;44.60;;;;;;;22.64;100.00;100571.94;5088689;28;20089;-77
2023/08/31 06:18:36;;;;;;;39.80;36.30;;;;;;;22.53;100.00;100584.78;5093066;28;20063;-77
2023/08/31 06:21:03;;;;;;;41.70;38.10;;;;;;;22.84;100.00;100587.94;5095908;28;20097;-77
2023/08/31 06:23:32;;;;;;;41.55;37.85;;;;;;;23.21;100.00;100586.38;5105733;28;20050;-77
2023/08/31 06:25:59;;;;;;;43.72;40.15;;;;;;;24.48;100.00;100563.63;5091790;28;20138;-77
2023/08/31 06:28:25;;;;;;;41.75;38.22;;;;;;;23.54;100.00;100570.94;5102712;28;20057;-77
2023/08/31 06:30:53;;;;;;;46.95;42.72;;;;;;;23.58;100.00;100581.22;5097529;28;20063;-77
2023/08/31 06:33:21;;;;;;;45.15;41.45;;;;;;;23.55;100.00;100577.97;5102598;28;20055;-77
2023/08/31 06:35:51;;;;;;;40.00;36.60;;;;;;;23.91;100.00;100577.41;5092123;28;20074;-77
2023/08/31 06:38:18;;;;;;;39.53;35.67;;;;;;;23.66;100.00;100589.47;5096970;28;20056;-77
2023/08/31 06:40:45;;;;;;;37.28;34.47;;;;;;;24.60;100.00;100577.47;5095242;28;20051;-77
2023/08/31 06:43:12;;;;;;;40.03;36.72;;;;;;;24.05;100.00;100576.59;5100748;28;20056;-77
2023/08/31 06:45:40;;;;;;;37.13;34.50;;;;;;;24.55;100.00;100576.78;5096291;28;20062;-78
2023/08/31 06:48:08;;;;;;;37.45;34.08;;;;;;;24.06;100.00;100581.75;5101057;28;20082;-77
2023/08/31 06:50:35;;;;;;;39.85;36.75;;;;;;;24.26;100.00;100577.84;5097180;28;20428;-77
2023/08/31 06:53:03;;;;;;;36.70;33.97;;;;;;;24.40;100.00;100570.50;5097415;28;20109;-77
2023/08/31 06:55:31;;;;;;;37.13;34.22;;;;;;;24.86;100.00;100580.44;5095402;28;20047;-77
2023/08/31 06:57:58;;;;;;;33.35;30.80;;;;;;;24.59;100.00;100585.91;5099814;28;20568;-77
2023/08/31 07:00:26;;;;;;;34.20;31.60;;;;;;;24.95;100.00;100577.00;5099554;28;20428;-78
2023/08/31 07:02:53;;;;;;;30.50;28.20;;;;;;;24.55;100.00;100583.00;5099852;28;20056;-77
2023/08/31 07:05:25;;;;;;;33.35;30.77;;;;;;;24.81;100.00;100591.44;5105930;28;20130;-77
2023/08/31 07:07:53;;;;;;;30.08;27.52;;;;;;;23.79;100.00;100595.25;5099509;28;20087;-77
2023/08/31 07:10:20;;;;;;;30.33;28.02;;;;;;;24.84;100.00;100592.72;5100496;28;21361;-77
2023/08/31 07:12:47;;;;;;;30.83;28.52;;;;;;;24.94;100.00;100597.13;5099040;28;20436;-77
2023/08/31 07:15:14;;;;;;;27.70;25.40;;;;;;;25.11;100.00;100591.84;5100647;28;20135;-77
2023/08/31 07:17:41;;;;;;;26.77;24.40;;;;;;;24.19;100.00;100604.56;5098395;28;20050;-77
2023/08/31 07:20:10;;;;;;;27.15;25.05;;;;;;;24.60;100.00;100604.63;5107859;28;20055;-77
2023/08/31 07:22:41;;;;;;;25.88;23.88;;;;;;;24.92;100.00;100600.94;5099156;28;20048;-77
2023/08/31 07:25:09;;;;;;;25.90;24.00;;;;;;;24.59;100.00;100594.84;5101952;28;20051;-77
2023/08/31 07:27:36;;;;;;;27.55;25.10;;;;;;;24.16;100.00;100610.59;5103935;28;20093;-78
2023/08/31 07:30:04;;;;;;;25.40;23.50;;;;;;;24.84;100.00;100609.00;5101363;28;20051;-78
2023/08/31 07:32:31;;;;;;;23.35;21.45;;;;;;;24.63;100.00;100609.44;5100281;28;20123;-77
2023/08/31 07:34:57;;;;;;;26.00;23.65;;;;;;;24.86;100.00;100609.50;5099866;28;20040;-77
2023/08/31 07:37:24;;;;;;;25.02;23.33;;;;;;;24.27;100.00;100616.63;5095677;28;20048;-77
2023/08/31 07:39:53;;;;;;;26.55;24.65;;;;;;;24.44;100.00;100620.38;5095459;28;20433;-77
2023/08/31 07:42:19;;;;;;;23.67;21.88;;;;;;;25.34;100.00;100609.03;5097327;28;20549;-78
2023/08/31 07:44:46;;;;;;;28.98;27.08;;;;;;;25.00;100.00;100610.31;5095667;28;20052;-77
2023/08/31 07:47:13;;;;;;;31.70;29.80;;;;;;;24.54;100.00;100622.13;5096899;28;20042;-77
2023/08/31 07:49:40;;;;;;;30.95;29.05;;;;;;;24.65;100.00;100620.78;5100148;28;20475;-77
2023/08/31 07:52:07;;;;;;;34.60;32.50;;;;;;;24.32;100.00;100621.97;5096905;28;20055;-77
2023/08/31 07:54:34;;;;;;;32.92;30.23;;;;;;;24.77;100.00;100630.34;5091843;28;20039;-78
2023/08/31 07:57:15;;;;;;;26.90;25.00;;;;;;;24.83;100.00;100629.13;5093851;28;20048;-77
2023/08/31 07:59:42;;;;;;;28.77;26.23;;;;;;;24.40;100.00;100635.66;5095071;28;20083;-78
2023/08/31 08:02:09;;;;;;;34.33;32.15;;;;;;;24.22;100.00;100639.25;5094446;28;20047;-78
2023/08/31 08:04:38;;;;;;;33.92;31.73;;;;;;;25.24;100.00;100634.53;5099712;28;20052;-77
2023/08/31 08:07:05;;;;;;;31.63;29.35;;;;;;;25.18;100.00;100627.59;5095444;28;20059;-77
2023/08/31 08:09:35;;;;;;;28.55;26.58;;;;;;;25.96;100.00;100635.53;5095287;28;20048;-78
2023/08/31 08:12:02;;;;;;;28.90;26.30;;;;;;;25.78;100.00;100634.59;5095851;28;20047;-78
2023/08/31 08:14:30;;;;;;;29.90;27.90;;;;;;;25.36;100.00;100631.28;5103915;28;20052;-77
2023/08/31 08:16:57;;;;;;;27.90;26.20;;;;;;;25.46;100.00;100636.47;5102319;28;20050;-77
2023/08/31 08:19:24;;;;;;;27.45;25.75;;;;;;;25.59;100.00;100630.16;5108139;28;20052;-77
2023/08/31 08:21:51;;;;;;;33.25;30.58;;;;;;;24.67;100.00;100640.31;5093324;28;20071;-77
2023/08/31 08:24:18;;;;;;;31.98;29.88;;;;;;;24.78;100.00;100642.81;5098526;28;20055;-76
2023/08/31 08:26:45;;;;;;;27.67;25.58;;;;;;;24.63;100.00;100649.34;5095413;28;20504;-77
2023/08/31 08:29:12;;;;;;;31.55;29.02;;;;;;;24.73;100.00;100653.78;5104507;28;20087;-77
2023/08/31 08:31:40;;;;;;;30.70;28.70;;;;;;;24.83;100.00;100646.22;5102562;28;20062;-77
2023/08/31 08:34:07;;;;;;;33.30;30.88;;;;;;;25.46;100.00;100636.47;5098668;28;20105;-77
2023/08/31 08:36:34;;;;;;;30.15;28.25;;;;;;;25.42;100.00;100638.19;5095142;28;20051;-77
2023/08/31 08:39:01;;;;;;;31.38;29.17;;;;;;;24.22;100.00;100644.66;5101850;28;20123;-76
2023/08/31 08:41:32;;;;;;;28.73;26.52;;;;;;;25.44;100.00;100649.56;5102709;28;20058;-77
2023/08/31 08:44:04;;;;;;;29.00;26.80;;;;;;;25.62;100.00;100644.25;5098080;28;20071;-76
2023/08/31 08:46:32;;;;;;;28.92;26.67;;;;;;;25.49;100.00;100633.13;5094383;28;20051;-77
2023/08/31 08:49:02;;;;;;;31.33;29.13;;;;;;;26.19;100.00;100633.59;5103873;28;20047;-76
2023/08/31 08:51:31;;;;;;;29.33;27.33;;;;;;;26.55;100.00;100633.47;5097800;28;20097;-77
2023/08/31 08:54:00;;;;;;;28.50;26.50;;;;;;;26.00;100.00;100636.56;5095247;28;20570;-77
2023/08/31 08:56:27;;;;;;;27.95;26.08;;;;;;;26.10;100.00;100640.91;5094884;28;20501;-76
2023/08/31 08:58:54;;;;;;;25.25;23.45;;;;;;;25.64;100.00;100650.19;5097087;28;20432;-77
2023/08/31 09:01:23;;;;;;;25.77;23.88;;;;;;;25.32;100.00;100649.28;5104905;28;20052;-77
2023/08/31 09:03:50;;;;;;;25.60;23.80;;;;;;;25.45;100.00;100645.75;5102814;28;20047;-76
2023/08/31 09:06:18;;;;;;;25.30;23.30;;;;;;;25.03;100.00;100650.44;5096184;28;20539;-77
2023/08/31 09:08:45;;;;;;;25.95;23.45;;;;;;;25.23;100.00;100640.25;5099443;28;20103;-77
2023/08/31 09:11:22;;;;;;;25.90;23.67;;;;;;;25.08;100.00;100641.38;5103426;28;20062;-77
2023/08/31 09:13:49;;;;;;;28.80;26.60;;;;;;;25.57;100.00;100629.69;5095439;28;20051;-77
2023/08/31 09:16:25;;;;;;;26.75;24.65;;;;;;;25.87;100.00;100631.97;5102037;28;20040;-77
2023/08/31 09:18:52;;;;;;;27.60;25.40;;;;;;;25.88;100.00;100622.72;5089925;28;20432;-77
2023/08/31 09:21:21;;;;;;;26.65;24.75;;;;;;;25.64;100.00;100625.72;5096587;28;20062;-77
2023/08/31 09:23:56;;;;;;;28.20;26.20;;;;;;;25.17;100.00;100631.41;5102129;28;20047;-78
2023/08/31 09:26:23;;;;;;;26.30;24.55;;;;;;;25.32;100.00;100635.69;5101734;28;20320;-76
2023/08/31 09:28:50;;;;;;;30.05;27.75;;;;;;;24.88;100.00;100640.69;5094142;28;20056;-77
2023/08/31 09:31:17;;;;;;;28.38;26.45;;;;;;;24.72;100.00;100647.56;5099659;28;20516;-76
2023/08/31 09:33:51;;;;;;;27.17;25.33;;;;;;;25.31;100.00;100637.63;5109260;28;20043;-76
2023/08/31 09:36:21;;;;;;;29.20;27.30;;;;;;;25.69;100.00;100644.63;5087729;28;20558;-76
2023/08/31 09:38:48;;;;;;;27.70;25.90;;;;;;;25.26;100.00;100642.34;5108526;28;20036;-77
2023/08/31 09:41:15;;;;;;;26.02;24.15;;;;;;;25.78;100.00;100640.03;5104377;28;20051;-77
2023/08/31 09:43:43;;;;;;;26.90;24.88;;;;;;;26.11;100.00;100647.97;5105310;28;20071;-76
2023/08/31 09:46:10;;;;;;;25.10;23.40;;;;;;;26.43;100.00;100650.38;5095616;28;20143;-77
2023/08/31 09:48:40;;;;;;;26.77;25.17;;;;;;;26.73;100.00;100654.19;5101792;28;20428;-76
2023/08/31 09:51:10;;;;;;;27.25;25.25;;;;;;;26.72;100.00;100658.03;5098179;28;20036;-77
2023/08/31 09:53:39;;;;;;;23.50;22.00;;;;;;;27.06;100.00;100644.81;5096881;28;20062;-76
2023/08/31 09:56:07;;;;;;;23.20;21.50;;;;;;;27.12;100.00;100640.81;5096530;28;20515;-78
2023/08/31 09:58:34;;;;;;;24.17;22.77;;;;;;;26.97;100.00;100644.78;5094885;28;20075;-77
2023/08/31 10:01:02;;;;;;;24.05;22.65;;;;;;;27.63;100.00;100634.59;5102372;28;20048;-77
2023/08/31 10:03:29;;;;;;;21.80;20.35;;;;;;;28.02;100.00;100637.41;5093845;28;20060;-77
2023/08/31 10:05:57;;;;;;;22.02;20.52;;;;;;;27.30;100.00;100641.66;5099991;28;20052;-78
2023/08/31 10:08:26;;;;;;;22.67;21.27;;;;;;;28.40;100.00;100629.25;5103905;28;20486;-78
2023/08/31 10:10:55;;;;;;;21.80;20.50;;;;;;;29.03;100.00;100626.72;5090911;28;20051;-78
2023/08/31 10:13:23;;;;;;;22.13;20.75;;;;;;;29.10;100.00;100620.72;5099371;28;20566;-78
2023/08/31 10:15:50;;;;;;;20.88;19.67;;;;;;;28.79;100.00;100630.06;5096437;28;20048;-78
2023/08/31 10:18:17;;;;;;;20.30;18.90;;;;;;;29.50;100.00;100621.00;5096734;28;20077;-78
2023/08/31 10:20:45;;;;;;;21.88;20.48;;;;;;;30.34;100.00;100612.59;5099523;28;20062;-78
2023/08/31 10:23:13;;;;;;;26.42;20.00;;;;;;;28.79;100.00;100619.13;5097940;28;20058;-78
2023/08/31 10:26:06;;;;;;;23.00;21.30;;;;;;;29.64;100.00;100596.94;5098137;28;20047;-78
2023/08/31 10:28:41;;;;;;;21.40;20.00;;;;;;;29.30;100.00;100599.97;5098197;28;20047;-78
2023/08/31 10:31:10;;;;;;;25.98;24.38;;;;;;;30.07;100.00;100598.38;5095948;28;20052;-78
2023/08/31 10:33:41;;;;;;;23.67;22.27;;;;;;;29.22;100.00;100598.91;5091071;28;20481;-77
2023/08/31 10:36:12;;;;;;;22.50;20.98;;;;;;;29.93;100.00;100599.88;5098927;28;20075;-77
2023/08/31 10:38:39;;;;;;;22.92;21.52;;;;;;;29.56;100.00;100597.81;5097800;28;20036;-77
2023/08/31 10:41:24;;;;;;;22.63;21.23;;;;;;;30.93;100.00;100600.34;5093386;28;20428;-77
2023/08/31 10:43:53;;;;;;;23.40;21.95;;;;;;;30.64;100.00;100595.91;5099110;28;20047;-77
2023/08/31 10:46:31;;;;;;;34.10;32.20;;;;;;;31.18;100.00;100587.34;5098914;28;20071;-77
2023/08/31 10:48:59;;;;;;;26.75;24.95;;;;;;;29.18;100.00;100589.78;5099590;28;20044;-77
2023/08/31 10:51:28;;;;;;;26.23;24.42;;;;;;;29.94;100.00;100593.25;5093715;28;20050;-77
2023/08/31 10:54:10;;;;;;;28.65;26.60;;;;;;;31.08;100.00;100590.59;5100982;28;20421;-77
2023/08/31 10:56:53;;;;;;;24.60;22.80;;;;;;;29.54;100.00;100580.13;5092607;28;20714;-77
2023/08/31 10:59:21;;;;;;;24.98;23.17;;;;;;;31.19;100.00;100587.00;5105159;28;20084;-78
2023/08/31 11:01:55;;;;;;;25.30;23.50;;;;;;;30.31;100.00;100577.66;5095633;28;20402;-78
2023/08/31 11:04:22;;;;;;;25.35;23.35;;;;;;;31.64;100.00;100577.69;5096712;28;20055;-78
2023/08/31 11:06:49;;;;;;;27.90;25.90;;;;;;;32.15;100.00;100579.78;5092832;28;20528;-79
2023/08/31 11:09:21;;;;;;;23.88;22.08;;;;;;;31.42;100.00;100575.53;5096121;28;20043;-79